sensor_id;sensor_type;location;lat;lon;timestamp;P1;durP1;ratioP1;P2;durP2;ratioP2
73474;SDS011;61711;52.266;10.542;2023-05-10T00:00:21;9.20;;;5.97;;
73474;SDS011;61711;52.266;10.542;2023-05-10T00:02:48;9.15;;;5.93;;
73474;SDS011;61711;52.266;10.542;2023-05-10T00:05:14;7.40;;;5.55;;
73474;SDS011;61711;52.266;10.542;2023-05-10T00:07:40;7.18;;;5.70;;
73474;SDS011;61711;52.266;10.542;2023-05-10T00:10:09;7.22;;;5.38;;
73474;SDS011;61711;52.266;10.542;2023-05-10T00:12:35;6.93;;;5.63;;
73474;SDS011;61711;52.266;10.542;2023-05-10T00:15:01;7.15;;;5.75;;
73474;SDS011;61711;52.266;10.542;2023-05-10T00:17:28;8.48;;;6.35;;
73474;SDS011;61711;52.266;10.542;2023-05-10T00:19:54;8.13;;;5.85;;
73474;SDS011;61711;52.266;10.542;2023-05-10T00:22:20;7.50;;;5.85;;
73474;SDS011;61711;52.266;10.542;2023-05-10T00:24:46;7.82;;;5.95;;
73474;SDS011;61711;52.266;10.542;2023-05-10T00:27:12;6.72;;;5.43;;
73474;SDS011;61711;52.266;10.542;2023-05-10T00:29:38;7.35;;;5.47;;
73474;SDS011;61711;52.266;10.542;2023-05-10T00:32:04;7.28;;;5.68;;
73474;SDS011;61711;52.266;10.542;2023-05-10T00:34:30;8.95;;;6.00;;
73474;SDS011;61711;52.266;10.542;2023-05-10T00:36:56;7.68;;;5.80;;
73474;SDS011;61711;52.266;10.542;2023-05-10T00:39:22;7.82;;;5.47;;
73474;SDS011;61711;52.266;10.542;2023-05-10T00:41:49;8.45;;;5.45;;
73474;SDS011;61711;52.266;10.542;2023-05-10T00:44:15;8.00;;;5.85;;
73474;SDS011;61711;52.266;10.542;2023-05-10T00:46:41;9.18;;;5.60;;
73474;SDS011;61711;52.266;10.542;2023-05-10T00:49:07;9.10;;;5.65;;
73474;SDS011;61711;52.266;10.542;2023-05-10T00:51:33;6.38;;;5.43;;
73474;SDS011;61711;52.266;10.542;2023-05-10T00:53:59;7.80;;;6.10;;
73474;SDS011;61711;52.266;10.542;2023-05-10T00:56:25;7.15;;;5.70;;
73474;SDS011;61711;52.266;10.542;2023-05-10T00:58:53;10.82;;;5.72;;
73474;SDS011;61711;52.266;10.542;2023-05-10T01:01:19;7.00;;;5.47;;
73474;SDS011;61711;52.266;10.542;2023-05-10T01:03:45;8.48;;;5.35;;
73474;SDS011;61711;52.266;10.542;2023-05-10T01:06:12;8.10;;;5.65;;
73474;SDS011;61711;52.266;10.542;2023-05-10T01:08:38;8.00;;;6.03;;
73474;SDS011;61711;52.266;10.542;2023-05-10T01:11:04;6.97;;;5.50;;
73474;SDS011;61711;52.266;10.542;2023-05-10T01:13:34;8.32;;;5.57;;
73474;SDS011;61711;52.266;10.542;2023-05-10T01:16:01;7.60;;;5.60;;
73474;SDS011;61711;52.266;10.542;2023-05-10T01:18:28;7.32;;;5.68;;
73474;SDS011;61711;52.266;10.542;2023-05-10T01:21:02;8.35;;;5.70;;
73474;SDS011;61711;52.266;10.542;2023-05-10T01:34:09;7.65;;;5.90;;
73474;SDS011;61711;52.266;10.542;2023-05-10T01:41:56;7.72;;;5.47;;
73474;SDS011;61711;52.266;10.542;2023-05-10T01:46:57;7.70;;;5.38;;
73474;SDS011;61711;52.266;10.542;2023-05-10T01:49:29;7.18;;;5.35;;
73474;SDS011;61711;52.266;10.542;2023-05-10T01:51:57;10.30;;;5.85;;
73474;SDS011;61711;52.266;10.542;2023-05-10T01:54:25;9.18;;;6.00;;
73474;SDS011;61711;52.266;10.542;2023-05-10T01:56:55;9.07;;;5.70;;
73474;SDS011;61711;52.266;10.542;2023-05-10T01:59:23;8.30;;;5.90;;
73474;SDS011;61711;52.266;10.542;2023-05-10T02:01:53;8.77;;;6.22;;
73474;SDS011;61711;52.266;10.542;2023-05-10T02:04:19;13.63;;;6.20;;
73474;SDS011;61711;52.266;10.542;2023-05-10T02:06:47;10.95;;;5.75;;
73474;SDS011;61711;52.266;10.542;2023-05-10T02:09:14;8.80;;;6.03;;
73474;SDS011;61711;52.266;10.542;2023-05-10T02:11:42;7.80;;;5.35;;
73474;SDS011;61711;52.266;10.542;2023-05-10T02:14:09;8.95;;;5.32;;
73474;SDS011;61711;52.266;10.542;2023-05-10T02:16:36;8.95;;;5.60;;
73474;SDS011;61711;52.266;10.542;2023-05-10T02:19:03;8.95;;;6.22;;
73474;SDS011;61711;52.266;10.542;2023-05-10T02:21:29;10.85;;;5.75;;
73474;SDS011;61711;52.266;10.542;2023-05-10T02:23:56;8.55;;;5.70;;
73474;SDS011;61711;52.266;10.542;2023-05-10T02:26:22;9.00;;;6.47;;
73474;SDS011;61711;52.266;10.542;2023-05-10T02:28:50;7.00;;;5.80;;
73474;SDS011;61711;52.266;10.542;2023-05-10T02:31:16;7.43;;;5.88;;
73474;SDS011;61711;52.266;10.542;2023-05-10T02:33:42;7.63;;;5.85;;
73474;SDS011;61711;52.266;10.542;2023-05-10T02:36:09;7.40;;;6.03;;
73474;SDS011;61711;52.266;10.542;2023-05-10T02:38:36;8.27;;;5.90;;
73474;SDS011;61711;52.266;10.542;2023-05-10T02:41:02;8.68;;;5.47;;
73474;SDS011;61711;52.266;10.542;2023-05-10T02:43:30;7.30;;;5.90;;
73474;SDS011;61711;52.266;10.542;2023-05-10T02:45:57;10.85;;;6.15;;
73474;SDS011;61711;52.266;10.542;2023-05-10T02:48:23;10.02;;;6.22;;
73474;SDS011;61711;52.266;10.542;2023-05-10T02:50:50;7.97;;;5.85;;
73474;SDS011;61711;52.266;10.542;2023-05-10T02:53:21;9.43;;;6.30;;
73474;SDS011;61711;52.266;10.542;2023-05-10T02:55:49;8.60;;;5.82;;
73474;SDS011;61711;52.266;10.542;2023-05-10T02:58:16;8.05;;;5.78;;
73474;SDS011;61711;52.266;10.542;2023-05-10T03:00:44;9.68;;;6.30;;
73474;SDS011;61711;52.266;10.542;2023-05-10T03:03:11;10.77;;;5.95;;
73474;SDS011;61711;52.266;10.542;2023-05-10T03:05:37;8.43;;;6.18;;
73474;SDS011;61711;52.266;10.542;2023-05-10T03:08:03;8.02;;;6.00;;
73474;SDS011;61711;52.266;10.542;2023-05-10T03:10:29;9.73;;;6.00;;
73474;SDS011;61711;52.266;10.542;2023-05-10T03:12:59;11.00;;;6.05;;
73474;SDS011;61711;52.266;10.542;2023-05-10T03:17:56;8.52;;;6.07;;
73474;SDS011;61711;52.266;10.542;2023-05-10T03:20:35;8.35;;;6.07;;
73474;SDS011;61711;52.266;10.542;2023-05-10T03:23:04;9.77;;;6.18;;
73474;SDS011;61711;52.266;10.542;2023-05-10T03:25:31;10.43;;;6.10;;
73474;SDS011;61711;52.266;10.542;2023-05-10T03:27:57;7.70;;;6.25;;
73474;SDS011;61711;52.266;10.542;2023-05-10T03:30:23;8.52;;;6.25;;
73474;SDS011;61711;52.266;10.542;2023-05-10T03:32:50;10.02;;;7.40;;
73474;SDS011;61711;52.266;10.542;2023-05-10T03:35:16;9.73;;;6.30;;
73474;SDS011;61711;52.266;10.542;2023-05-10T03:37:42;9.45;;;6.32;;
73474;SDS011;61711;52.266;10.542;2023-05-10T03:40:09;11.25;;;6.68;;
73474;SDS011;61711;52.266;10.542;2023-05-10T03:42:35;8.93;;;6.43;;
73474;SDS011;61711;52.266;10.542;2023-05-10T03:45:01;8.15;;;6.20;;
73474;SDS011;61711;52.266;10.542;2023-05-10T03:47:27;9.88;;;6.80;;
73474;SDS011;61711;52.266;10.542;2023-05-10T03:49:54;10.43;;;6.70;;
73474;SDS011;61711;52.266;10.542;2023-05-10T03:52:20;11.93;;;7.45;;
73474;SDS011;61711;52.266;10.542;2023-05-10T03:54:46;11.60;;;7.00;;
73474;SDS011;61711;52.266;10.542;2023-05-10T03:57:12;10.93;;;6.90;;
73474;SDS011;61711;52.266;10.542;2023-05-10T03:59:38;9.90;;;6.60;;
73474;SDS011;61711;52.266;10.542;2023-05-10T04:02:04;9.48;;;6.28;;
73474;SDS011;61711;52.266;10.542;2023-05-10T04:04:30;9.77;;;6.82;;
73474;SDS011;61711;52.266;10.542;2023-05-10T04:06:56;13.32;;;7.00;;
73474;SDS011;61711;52.266;10.542;2023-05-10T04:09:22;12.07;;;6.72;;
73474;SDS011;61711;52.266;10.542;2023-05-10T04:11:48;9.07;;;6.80;;
73474;SDS011;61711;52.266;10.542;2023-05-10T04:14:14;9.80;;;6.63;;
73474;SDS011;61711;52.266;10.542;2023-05-10T04:16:41;9.30;;;6.60;;
73474;SDS011;61711;52.266;10.542;2023-05-10T04:19:07;8.45;;;6.53;;
73474;SDS011;61711;52.266;10.542;2023-05-10T04:21:33;9.65;;;6.70;;
73474;SDS011;61711;52.266;10.542;2023-05-10T04:23:59;11.38;;;6.82;;
73474;SDS011;61711;52.266;10.542;2023-05-10T04:26:25;10.88;;;6.38;;
73474;SDS011;61711;52.266;10.542;2023-05-10T04:28:51;11.68;;;6.80;;
73474;SDS011;61711;52.266;10.542;2023-05-10T04:31:17;12.32;;;7.28;;
73474;SDS011;61711;52.266;10.542;2023-05-10T04:33:43;11.38;;;6.68;;
73474;SDS011;61711;52.266;10.542;2023-05-10T04:36:09;9.25;;;6.80;;
73474;SDS011;61711;52.266;10.542;2023-05-10T04:38:35;10.95;;;7.20;;
73474;SDS011;61711;52.266;10.542;2023-05-10T04:41:04;9.70;;;6.47;;
73474;SDS011;61711;52.266;10.542;2023-05-10T04:43:31;10.13;;;7.22;;
73474;SDS011;61711;52.266;10.542;2023-05-10T04:45:57;12.70;;;7.22;;
73474;SDS011;61711;52.266;10.542;2023-05-10T04:48:23;12.68;;;7.03;;
73474;SDS011;61711;52.266;10.542;2023-05-10T04:50:49;11.65;;;7.40;;
73474;SDS011;61711;52.266;10.542;2023-05-10T04:53:15;11.23;;;7.00;;
73474;SDS011;61711;52.266;10.542;2023-05-10T04:55:41;9.40;;;6.68;;
73474;SDS011;61711;52.266;10.542;2023-05-10T04:58:07;11.95;;;7.38;;
73474;SDS011;61711;52.266;10.542;2023-05-10T05:00:33;10.80;;;6.95;;
73474;SDS011;61711;52.266;10.542;2023-05-10T05:03:00;10.23;;;6.95;;
73474;SDS011;61711;52.266;10.542;2023-05-10T05:05:26;11.23;;;7.10;;
73474;SDS011;61711;52.266;10.542;2023-05-10T05:07:52;8.95;;;6.93;;
73474;SDS011;61711;52.266;10.542;2023-05-10T05:10:18;7.95;;;6.28;;
73474;SDS011;61711;52.266;10.542;2023-05-10T05:12:44;10.73;;;6.80;;
73474;SDS011;61711;52.266;10.542;2023-05-10T05:15:10;11.80;;;6.82;;
73474;SDS011;61711;52.266;10.542;2023-05-10T05:17:36;9.73;;;7.07;;
73474;SDS011;61711;52.266;10.542;2023-05-10T05:20:02;9.38;;;6.68;;
73474;SDS011;61711;52.266;10.542;2023-05-10T05:22:29;10.15;;;7.00;;
73474;SDS011;61711;52.266;10.542;2023-05-10T05:24:55;11.57;;;7.30;;
73474;SDS011;61711;52.266;10.542;2023-05-10T05:27:21;10.00;;;6.63;;
73474;SDS011;61711;52.266;10.542;2023-05-10T05:29:52;10.07;;;6.85;;
73474;SDS011;61711;52.266;10.542;2023-05-10T05:32:18;9.50;;;7.15;;
73474;SDS011;61711;52.266;10.542;2023-05-10T05:34:44;9.63;;;6.80;;
73474;SDS011;61711;52.266;10.542;2023-05-10T05:37:14;12.18;;;7.38;;
73474;SDS011;61711;52.266;10.542;2023-05-10T05:39:40;10.35;;;7.20;;
73474;SDS011;61711;52.266;10.542;2023-05-10T05:42:06;13.77;;;7.00;;
73474;SDS011;61711;52.266;10.542;2023-05-10T05:44:32;10.45;;;7.03;;
73474;SDS011;61711;52.266;10.542;2023-05-10T05:46:58;10.43;;;6.80;;
73474;SDS011;61711;52.266;10.542;2023-05-10T05:49:24;9.50;;;6.80;;
73474;SDS011;61711;52.266;10.542;2023-05-10T05:51:50;11.77;;;7.22;;
73474;SDS011;61711;52.266;10.542;2023-05-10T05:54:16;11.07;;;6.80;;
73474;SDS011;61711;52.266;10.542;2023-05-10T05:56:42;9.48;;;6.80;;
73474;SDS011;61711;52.266;10.542;2023-05-10T05:59:09;9.73;;;7.57;;
73474;SDS011;61711;52.266;10.542;2023-05-10T06:01:35;9.65;;;7.53;;
73474;SDS011;61711;52.266;10.542;2023-05-10T06:04:01;10.23;;;7.57;;
73474;SDS011;61711;52.266;10.542;2023-05-10T06:06:27;11.32;;;6.97;;
73474;SDS011;61711;52.266;10.542;2023-05-10T06:08:54;12.65;;;7.57;;
73474;SDS011;61711;52.266;10.542;2023-05-10T06:11:20;11.00;;;7.55;;
73474;SDS011;61711;52.266;10.542;2023-05-10T06:13:46;10.90;;;6.97;;
73474;SDS011;61711;52.266;10.542;2023-05-10T06:16:13;11.27;;;7.25;;
73474;SDS011;61711;52.266;10.542;2023-05-10T06:18:39;13.43;;;7.43;;
73474;SDS011;61711;52.266;10.542;2023-05-10T06:21:05;14.68;;;7.88;;
73474;SDS011;61711;52.266;10.542;2023-05-10T06:23:31;10.35;;;7.35;;
73474;SDS011;61711;52.266;10.542;2023-05-10T06:25:57;12.55;;;7.63;;
73474;SDS011;61711;52.266;10.542;2023-05-10T06:28:23;12.77;;;8.07;;
73474;SDS011;61711;52.266;10.542;2023-05-10T06:30:49;10.38;;;7.60;;
73474;SDS011;61711;52.266;10.542;2023-05-10T06:33:15;10.68;;;7.43;;
73474;SDS011;61711;52.266;10.542;2023-05-10T06:35:41;10.68;;;7.80;;
73474;SDS011;61711;52.266;10.542;2023-05-10T06:38:07;12.68;;;7.75;;
73474;SDS011;61711;52.266;10.542;2023-05-10T06:40:33;10.55;;;7.53;;
73474;SDS011;61711;52.266;10.542;2023-05-10T06:42:59;12.98;;;7.40;;
73474;SDS011;61711;52.266;10.542;2023-05-10T06:45:25;11.68;;;7.68;;
73474;SDS011;61711;52.266;10.542;2023-05-10T06:47:51;12.50;;;8.48;;
73474;SDS011;61711;52.266;10.542;2023-05-10T06:50:17;11.13;;;8.07;;
73474;SDS011;61711;52.266;10.542;2023-05-10T06:52:43;15.02;;;8.48;;
73474;SDS011;61711;52.266;10.542;2023-05-10T06:55:09;10.80;;;7.53;;
73474;SDS011;61711;52.266;10.542;2023-05-10T06:57:36;11.93;;;8.00;;
73474;SDS011;61711;52.266;10.542;2023-05-10T07:00:02;12.98;;;8.23;;
73474;SDS011;61711;52.266;10.542;2023-05-10T07:02:29;12.60;;;8.23;;
73474;SDS011;61711;52.266;10.542;2023-05-10T07:04:55;11.77;;;8.30;;
73474;SDS011;61711;52.266;10.542;2023-05-10T07:07:22;12.63;;;8.65;;
73474;SDS011;61711;52.266;10.542;2023-05-10T07:09:48;11.32;;;8.52;;
73474;SDS011;61711;52.266;10.542;2023-05-10T07:12:15;14.25;;;8.73;;
73474;SDS011;61711;52.266;10.542;2023-05-10T07:14:41;14.63;;;9.20;;
73474;SDS011;61711;52.266;10.542;2023-05-10T07:17:07;13.18;;;8.32;;
73474;SDS011;61711;52.266;10.542;2023-05-10T07:19:33;14.15;;;9.10;;
73474;SDS011;61711;52.266;10.542;2023-05-10T07:21:59;16.50;;;8.95;;
73474;SDS011;61711;52.266;10.542;2023-05-10T07:24:25;15.07;;;9.32;;
73474;SDS011;61711;52.266;10.542;2023-05-10T07:26:51;12.77;;;9.45;;
73474;SDS011;61711;52.266;10.542;2023-05-10T07:29:17;15.50;;;9.38;;
73474;SDS011;61711;52.266;10.542;2023-05-10T07:31:43;12.45;;;9.45;;
73474;SDS011;61711;52.266;10.542;2023-05-10T07:34:09;12.73;;;9.52;;
73474;SDS011;61711;52.266;10.542;2023-05-10T07:36:35;16.67;;;10.30;;
73474;SDS011;61711;52.266;10.542;2023-05-10T07:39:01;13.55;;;8.90;;
73474;SDS011;61711;52.266;10.542;2023-05-10T07:41:28;16.10;;;10.43;;
73474;SDS011;61711;52.266;10.542;2023-05-10T07:43:54;15.60;;;9.80;;
73474;SDS011;61711;52.266;10.542;2023-05-10T07:46:20;14.40;;;10.25;;
73474;SDS011;61711;52.266;10.542;2023-05-10T07:48:45;15.18;;;9.77;;
73474;SDS011;61711;52.266;10.542;2023-05-10T07:51:11;16.25;;;9.80;;
73474;SDS011;61711;52.266;10.542;2023-05-10T07:53:37;15.05;;;10.80;;
73474;SDS011;61711;52.266;10.542;2023-05-10T07:56:20;17.08;;;10.13;;
73474;SDS011;61711;52.266;10.542;2023-05-10T07:58:46;14.70;;;10.37;;
73474;SDS011;61711;52.266;10.542;2023-05-10T08:01:12;16.73;;;10.48;;
73474;SDS011;61711;52.266;10.542;2023-05-10T08:03:38;20.48;;;9.93;;
73474;SDS011;61711;52.266;10.542;2023-05-10T08:06:04;14.63;;;10.38;;
73474;SDS011;61711;52.266;10.542;2023-05-10T08:08:30;17.55;;;10.80;;
73474;SDS011;61711;52.266;10.542;2023-05-10T08:10:56;16.40;;;10.52;;
73474;SDS011;61711;52.266;10.542;2023-05-10T08:13:22;14.57;;;9.82;;
73474;SDS011;61711;52.266;10.542;2023-05-10T08:15:48;17.58;;;10.75;;
73474;SDS011;61711;52.266;10.542;2023-05-10T08:18:17;15.23;;;10.63;;
73474;SDS011;61711;52.266;10.542;2023-05-10T08:20:43;15.40;;;11.15;;
73474;SDS011;61711;52.266;10.542;2023-05-10T08:23:09;17.45;;;11.57;;
73474;SDS011;61711;52.266;10.542;2023-05-10T08:25:36;15.88;;;10.77;;
73474;SDS011;61711;52.266;10.542;2023-05-10T08:28:02;17.95;;;11.57;;
73474;SDS011;61711;52.266;10.542;2023-05-10T08:30:28;15.70;;;10.82;;
73474;SDS011;61711;52.266;10.542;2023-05-10T08:32:54;16.13;;;10.73;;
73474;SDS011;61711;52.266;10.542;2023-05-10T08:35:20;14.68;;;11.00;;
73474;SDS011;61711;52.266;10.542;2023-05-10T08:37:46;17.73;;;11.45;;
73474;SDS011;61711;52.266;10.542;2023-05-10T08:40:12;15.68;;;11.35;;
73474;SDS011;61711;52.266;10.542;2023-05-10T08:42:39;16.73;;;11.30;;
73474;SDS011;61711;52.266;10.542;2023-05-10T08:45:07;17.23;;;11.32;;
73474;SDS011;61711;52.266;10.542;2023-05-10T08:47:34;14.88;;;11.02;;
73474;SDS011;61711;52.266;10.542;2023-05-10T08:50:01;16.25;;;10.77;;
73474;SDS011;61711;52.266;10.542;2023-05-10T08:52:28;16.83;;;11.20;;
73474;SDS011;61711;52.266;10.542;2023-05-10T08:54:55;14.50;;;10.95;;
73474;SDS011;61711;52.266;10.542;2023-05-10T08:57:22;17.60;;;10.90;;
73474;SDS011;61711;52.266;10.542;2023-05-10T08:59:48;14.40;;;10.93;;
73474;SDS011;61711;52.266;10.542;2023-05-10T09:02:14;15.02;;;10.80;;
73474;SDS011;61711;52.266;10.542;2023-05-10T09:04:40;18.10;;;10.77;;
73474;SDS011;61711;52.266;10.542;2023-05-10T09:07:06;16.92;;;11.25;;
73474;SDS011;61711;52.266;10.542;2023-05-10T09:09:32;16.35;;;11.07;;
73474;SDS011;61711;52.266;10.542;2023-05-10T09:11:59;15.75;;;10.98;;
73474;SDS011;61711;52.266;10.542;2023-05-10T09:14:25;17.02;;;11.32;;
73474;SDS011;61711;52.266;10.542;2023-05-10T09:16:51;18.38;;;11.55;;
73474;SDS011;61711;52.266;10.542;2023-05-10T09:19:19;17.75;;;11.27;;
73474;SDS011;61711;52.266;10.542;2023-05-10T09:21:45;18.27;;;11.93;;
73474;SDS011;61711;52.266;10.542;2023-05-10T09:24:11;18.98;;;12.02;;
73474;SDS011;61711;52.266;10.542;2023-05-10T09:26:45;16.83;;;11.27;;
73474;SDS011;61711;52.266;10.542;2023-05-10T09:29:12;17.17;;;11.55;;
73474;SDS011;61711;52.266;10.542;2023-05-10T09:34:19;18.70;;;12.25;;
73474;SDS011;61711;52.266;10.542;2023-05-10T09:36:52;15.40;;;11.15;;
73474;SDS011;61711;52.266;10.542;2023-05-10T09:39:18;16.63;;;11.52;;
73474;SDS011;61711;52.266;10.542;2023-05-10T09:41:44;16.25;;;10.93;;
73474;SDS011;61711;52.266;10.542;2023-05-10T09:44:10;17.17;;;11.75;;
73474;SDS011;61711;52.266;10.542;2023-05-10T09:46:37;16.42;;;11.30;;
73474;SDS011;61711;52.266;10.542;2023-05-10T09:49:03;18.40;;;11.13;;
73474;SDS011;61711;52.266;10.542;2023-05-10T09:51:31;16.23;;;11.60;;
73474;SDS011;61711;52.266;10.542;2023-05-10T09:54:13;15.38;;;10.20;;
73474;SDS011;61711;52.266;10.542;2023-05-10T09:56:40;13.95;;;10.07;;
73474;SDS011;61711;52.266;10.542;2023-05-10T09:59:10;11.60;;;8.43;;
73474;SDS011;61711;52.266;10.542;2023-05-10T10:01:36;11.43;;;7.53;;
73474;SDS011;61711;52.266;10.542;2023-05-10T10:04:04;10.95;;;6.95;;
73474;SDS011;61711;52.266;10.542;2023-05-10T10:06:34;7.65;;;5.68;;
73474;SDS011;61711;52.266;10.542;2023-05-10T10:09:01;7.32;;;4.35;;
73474;SDS011;61711;52.266;10.542;2023-05-10T10:11:28;4.85;;;3.53;;
73474;SDS011;61711;52.266;10.542;2023-05-10T10:13:54;3.80;;;3.10;;
73474;SDS011;61711;52.266;10.542;2023-05-10T10:16:20;2.90;;;2.35;;
73474;SDS011;61711;52.266;10.542;2023-05-10T10:18:46;3.22;;;2.85;;
73474;SDS011;61711;52.266;10.542;2023-05-10T10:21:13;2.78;;;2.53;;
73474;SDS011;61711;52.266;10.542;2023-05-10T10:23:39;4.35;;;2.90;;
73474;SDS011;61711;52.266;10.542;2023-05-10T10:26:05;2.97;;;2.47;;
73474;SDS011;61711;52.266;10.542;2023-05-10T10:31:15;3.83;;;1.92;;
73474;SDS011;61711;52.266;10.542;2023-05-10T10:36:15;2.42;;;1.52;;
73474;SDS011;61711;52.266;10.542;2023-05-10T10:41:11;1.58;;;1.33;;
73474;SDS011;61711;52.266;10.542;2023-05-10T10:47:20;2.67;;;1.77;;
73474;SDS011;61711;52.266;10.542;2023-05-10T10:54:46;2.75;;;1.92;;
73474;SDS011;61711;52.266;10.542;2023-05-10T10:57:17;3.67;;;2.35;;
73474;SDS011;61711;52.266;10.542;2023-05-10T10:59:44;2.00;;;1.70;;
73474;SDS011;61711;52.266;10.542;2023-05-10T11:02:10;2.65;;;1.92;;
73474;SDS011;61711;52.266;10.542;2023-05-10T11:04:56;3.10;;;2.05;;
73474;SDS011;61711;52.266;10.542;2023-05-10T11:07:22;2.38;;;1.92;;
73474;SDS011;61711;52.266;10.542;2023-05-10T11:09:48;3.10;;;2.25;;
73474;SDS011;61711;52.266;10.542;2023-05-10T11:12:14;2.47;;;1.90;;
73474;SDS011;61711;52.266;10.542;2023-05-10T11:14:40;3.63;;;2.40;;
73474;SDS011;61711;52.266;10.542;2023-05-10T11:17:22;3.08;;;2.08;;
73474;SDS011;61711;52.266;10.542;2023-05-10T11:20:09;2.42;;;1.90;;
73474;SDS011;61711;52.266;10.542;2023-05-10T11:23:47;2.38;;;2.03;;
73474;SDS011;61711;52.266;10.542;2023-05-10T11:25:31;2.00;;;1.80;;
73474;SDS011;61711;52.266;10.542;2023-05-10T11:27:57;3.10;;;1.80;;
73474;SDS011;61711;52.266;10.542;2023-05-10T11:30:23;2.08;;;1.80;;
73474;SDS011;61711;52.266;10.542;2023-05-10T11:32:50;2.33;;;1.92;;
73474;SDS011;61711;52.266;10.542;2023-05-10T11:35:16;6.97;;;3.55;;
73474;SDS011;61711;52.266;10.542;2023-05-10T11:37:42;4.10;;;2.88;;
73474;SDS011;61711;52.266;10.542;2023-05-10T11:40:09;3.20;;;2.50;;
73474;SDS011;61711;52.266;10.542;2023-05-10T11:42:38;3.70;;;1.95;;
73474;SDS011;61711;52.266;10.542;2023-05-10T11:45:04;2.60;;;2.10;;
73474;SDS011;61711;52.266;10.542;2023-05-10T11:47:31;2.40;;;2.00;;
73474;SDS011;61711;52.266;10.542;2023-05-10T11:49:57;3.00;;;2.20;;
73474;SDS011;61711;52.266;10.542;2023-05-10T11:52:23;3.28;;;2.40;;
73474;SDS011;61711;52.266;10.542;2023-05-10T11:54:53;2.40;;;2.20;;
73474;SDS011;61711;52.266;10.542;2023-05-10T11:57:19;2.92;;;2.10;;
73474;SDS011;61711;52.266;10.542;2023-05-10T11:59:46;5.22;;;2.08;;
73474;SDS011;61711;52.266;10.542;2023-05-10T12:02:18;2.58;;;1.92;;
73474;SDS011;61711;52.266;10.542;2023-05-10T12:04:44;1.88;;;1.63;;
73474;SDS011;61711;52.266;10.542;2023-05-10T12:07:10;2.40;;;1.70;;
73474;SDS011;61711;52.266;10.542;2023-05-10T12:09:36;2.35;;;1.60;;
73474;SDS011;61711;52.266;10.542;2023-05-10T12:12:02;2.20;;;1.90;;
73474;SDS011;61711;52.266;10.542;2023-05-10T12:14:28;2.10;;;1.90;;
73474;SDS011;61711;52.266;10.542;2023-05-10T12:16:58;2.30;;;1.83;;
73474;SDS011;61711;52.266;10.542;2023-05-10T12:19:24;2.03;;;1.73;;
73474;SDS011;61711;52.266;10.542;2023-05-10T12:21:50;2.22;;;1.88;;
73474;SDS011;61711;52.266;10.542;2023-05-10T12:24:16;2.00;;;1.75;;
73474;SDS011;61711;52.266;10.542;2023-05-10T12:26:43;2.00;;;1.80;;
73474;SDS011;61711;52.266;10.542;2023-05-10T12:29:15;3.38;;;1.60;;
73474;SDS011;61711;52.266;10.542;2023-05-10T12:31:55;2.20;;;1.30;;
73474;SDS011;61711;52.266;10.542;2023-05-10T12:34:30;4.70;;;1.92;;
73474;SDS011;61711;52.266;10.542;2023-05-10T12:36:56;3.15;;;1.83;;
73474;SDS011;61711;52.266;10.542;2023-05-10T12:39:23;2.00;;;1.75;;
73474;SDS011;61711;52.266;10.542;2023-05-10T12:41:49;1.90;;;1.50;;
73474;SDS011;61711;52.266;10.542;2023-05-10T12:44:15;3.13;;;1.98;;
73474;SDS011;61711;52.266;10.542;2023-05-10T12:46:41;3.55;;;2.00;;
73474;SDS011;61711;52.266;10.542;2023-05-10T12:49:06;4.90;;;2.10;;
73474;SDS011;61711;52.266;10.542;2023-05-10T12:51:33;5.25;;;2.63;;
73474;SDS011;61711;52.266;10.542;2023-05-10T12:53:59;2.88;;;1.92;;
73474;SDS011;61711;52.266;10.542;2023-05-10T12:56:25;2.63;;;2.10;;
73474;SDS011;61711;52.266;10.542;2023-05-10T12:58:51;5.10;;;2.15;;
73474;SDS011;61711;52.266;10.542;2023-05-10T13:01:17;2.65;;;1.90;;
73474;SDS011;61711;52.266;10.542;2023-05-10T13:03:43;2.75;;;2.35;;
73474;SDS011;61711;52.266;10.542;2023-05-10T13:06:09;4.00;;;2.38;;
73474;SDS011;61711;52.266;10.542;2023-05-10T13:08:35;3.10;;;1.92;;
73474;SDS011;61711;52.266;10.542;2023-05-10T13:11:01;3.75;;;1.90;;
73474;SDS011;61711;52.266;10.542;2023-05-10T13:13:27;4.25;;;2.00;;
73474;SDS011;61711;52.266;10.542;2023-05-10T13:15:53;3.13;;;1.80;;
73474;SDS011;61711;52.266;10.542;2023-05-10T13:18:19;4.60;;;1.85;;
73474;SDS011;61711;52.266;10.542;2023-05-10T13:20:45;4.03;;;2.03;;
73474;SDS011;61711;52.266;10.542;2023-05-10T13:23:11;4.22;;;1.92;;
73474;SDS011;61711;52.266;10.542;2023-05-10T13:25:37;2.00;;;1.70;;
73474;SDS011;61711;52.266;10.542;2023-05-10T13:28:04;3.42;;;2.00;;
73474;SDS011;61711;52.266;10.542;2023-05-10T13:30:30;2.70;;;1.83;;
73474;SDS011;61711;52.266;10.542;2023-05-10T13:32:56;4.25;;;2.55;;
73474;SDS011;61711;52.266;10.542;2023-05-10T13:35:22;3.35;;;2.60;;
73474;SDS011;61711;52.266;10.542;2023-05-10T13:37:48;4.40;;;2.10;;
73474;SDS011;61711;52.266;10.542;2023-05-10T13:40:14;3.95;;;1.95;;
73474;SDS011;61711;52.266;10.542;2023-05-10T13:42:40;3.58;;;2.10;;
73474;SDS011;61711;52.266;10.542;2023-05-10T13:45:06;3.00;;;2.25;;
73474;SDS011;61711;52.266;10.542;2023-05-10T13:47:33;5.25;;;2.33;;
73474;SDS011;61711;52.266;10.542;2023-05-10T13:49:59;2.97;;;2.13;;
73474;SDS011;61711;52.266;10.542;2023-05-10T13:52:26;4.57;;;2.45;;
73474;SDS011;61711;52.266;10.542;2023-05-10T13:54:52;3.47;;;2.40;;
73474;SDS011;61711;52.266;10.542;2023-05-10T13:57:20;3.65;;;2.15;;
73474;SDS011;61711;52.266;10.542;2023-05-10T13:59:46;3.13;;;2.10;;
73474;SDS011;61711;52.266;10.542;2023-05-10T14:02:12;2.40;;;2.15;;
73474;SDS011;61711;52.266;10.542;2023-05-10T14:04:38;3.67;;;2.00;;
73474;SDS011;61711;52.266;10.542;2023-05-10T14:07:05;2.70;;;2.05;;
73474;SDS011;61711;52.266;10.542;2023-05-10T14:09:31;4.18;;;2.03;;
73474;SDS011;61711;52.266;10.542;2023-05-10T14:11:57;4.53;;;2.05;;
73474;SDS011;61711;52.266;10.542;2023-05-10T14:14:23;2.53;;;1.77;;
73474;SDS011;61711;52.266;10.542;2023-05-10T14:16:49;3.20;;;2.05;;
73474;SDS011;61711;52.266;10.542;2023-05-10T14:19:16;2.03;;;1.70;;
73474;SDS011;61711;52.266;10.542;2023-05-10T14:21:42;2.70;;;1.88;;
73474;SDS011;61711;52.266;10.542;2023-05-10T14:24:08;2.78;;;1.90;;
73474;SDS011;61711;52.266;10.542;2023-05-10T14:26:34;3.00;;;2.17;;
73474;SDS011;61711;52.266;10.542;2023-05-10T14:29:00;2.88;;;1.90;;
73474;SDS011;61711;52.266;10.542;2023-05-10T14:31:26;3.38;;;1.70;;
73474;SDS011;61711;52.266;10.542;2023-05-10T14:33:52;3.17;;;1.83;;
73474;SDS011;61711;52.266;10.542;2023-05-10T14:36:18;2.47;;;2.10;;
73474;SDS011;61711;52.266;10.542;2023-05-10T14:38:44;4.38;;;2.60;;
73474;SDS011;61711;52.266;10.542;2023-05-10T14:41:10;3.70;;;1.77;;
73474;SDS011;61711;52.266;10.542;2023-05-10T14:43:39;2.95;;;2.08;;
73474;SDS011;61711;52.266;10.542;2023-05-10T14:46:06;4.15;;;2.00;;
73474;SDS011;61711;52.266;10.542;2023-05-10T14:48:32;12.32;;;6.93;;
73474;SDS011;61711;52.266;10.542;2023-05-10T14:50:58;20.80;;;11.23;;
73474;SDS011;61711;52.266;10.542;2023-05-10T14:53:24;3.72;;;2.28;;
73474;SDS011;61711;52.266;10.542;2023-05-10T14:55:50;4.13;;;2.60;;
73474;SDS011;61711;52.266;10.542;2023-05-10T14:58:16;4.30;;;2.60;;
73474;SDS011;61711;52.266;10.542;2023-05-10T15:00:42;3.35;;;2.25;;
73474;SDS011;61711;52.266;10.542;2023-05-10T15:03:08;4.53;;;2.20;;
73474;SDS011;61711;52.266;10.542;2023-05-10T15:05:34;3.25;;;2.42;;